Time;durP1;ratioP1;P1;durP2;ratioP2;P2;SDS_P1;SDS_P2;PMS_P1;PMS_P2;Temp;Humidity;BMP_temperature;BMP_pressure;BME280_temperature;BME280_humidity;BME280_pressure;Samples;Min_cycle;Max_cycle;Signal;HPM_P1;HPM_P2
2022/01/07 00:01:36;;;;;;;8.23;3.10;;;3.50;99.90;;;;;;10210516;28;84973;-58
2022/01/07 00:06:37;;;;;;;7.65;2.50;;;3.40;99.90;;;;;;10207565;28;84220;-57
2022/01/07 00:11:37;;;;;;;6.88;2.22;;;3.50;99.90;;;;;;10209118;28;87177;-55
2022/01/07 00:16:38;;;;;;;7.85;2.72;;;3.50;99.90;;;;;;10211077;28;84040;-58
2022/01/07 00:21:38;;;;;;;7.88;2.42;;;3.50;99.90;;;;;;10211178;28;85288;-57
2022/01/07 00:26:39;;;;;;;7.90;2.25;;;3.50;99.90;;;;;;10211430;28;84118;-58
2022/01/07 00:31:40;;;;;;;7.65;2.03;;;3.50;99.90;;;;;;10210596;28;84153;-59
2022/01/07 00:36:41;;;;;;;7.10;2.20;;;3.50;99.90;;;;;;10210084;28;84861;-55
2022/01/07 00:41:41;;;;;;;5.85;2.05;;;3.50;99.90;;;;;;10209764;28;84727;-55
2022/01/07 00:46:42;;;;;;;6.22;1.98;;;3.60;99.90;;;;;;10209566;28;84742;-55
2022/01/07 00:51:42;;;;;;;4.47;1.85;;;3.60;99.90;;;;;;10210021;28;84777;-55
2022/01/07 00:56:43;;;;;;;5.53;2.15;;;3.60;99.90;;;;;;10208358;28;87557;-55
2022/01/07 01:01:44;;;;;;;4.55;1.52;;;3.60;99.90;;;;;;10209173;28;85322;-54
2022/01/07 01:06:46;;;;;;;8.00;2.25;;;3.60;99.90;;;;;;10207794;28;85893;-56
2022/01/07 01:11:46;;;;;;;7.50;2.05;;;3.70;99.90;;;;;;10208134;28;84062;-53
2022/01/07 01:16:47;;;;;;;5.43;2.20;;;3.70;99.90;;;;;;10207715;28;84904;-51
2022/01/07 01:21:49;;;;;;;4.70;1.65;;;3.80;99.90;;;;;;10207759;28;84010;-57
2022/01/07 01:26:49;;;;;;;5.05;1.77;;;3.70;99.90;;;;;;10206450;28;85964;-52
2022/01/07 01:31:50;;;;;;;8.90;1.55;;;3.80;99.90;;;;;;10208467;28;84890;-53
2022/01/07 01:36:51;;;;;;;3.67;1.73;;;3.80;99.90;;;;;;10209166;28;84971;-60
2022/01/07 01:41:52;;;;;;;8.70;2.25;;;3.80;99.90;;;;;;10208453;28;84093;-52
2022/01/07 01:46:52;;;;;;;5.85;1.45;;;3.80;99.90;;;;;;10208303;28;84086;-52
2022/01/07 01:51:53;;;;;;;4.47;1.38;;;3.90;99.90;;;;;;10223034;28;86266;-54
2022/01/07 01:56:54;;;;;;;4.13;1.52;;;3.90;99.90;;;;;;10207495;28;84937;-57
2022/01/07 02:01:55;;;;;;;9.10;2.10;;;3.90;99.90;;;;;;10207248;28;84217;-54
2022/01/07 02:06:56;;;;;;;4.38;1.77;;;3.90;99.90;;;;;;10206608;28;85241;-53
2022/01/07 02:11:57;;;;;;;7.03;1.90;;;3.90;99.90;;;;;;10206343;28;84744;-55
2022/01/07 02:17:08;;;;;;;5.55;1.48;;;3.90;99.90;;;;;;10206345;28;83995;-54
2022/01/07 02:22:09;;;;;;;4.63;1.58;;;3.90;99.90;;;;;;10204637;28;84682;-57
2022/01/07 02:27:11;;;;;;;4.22;1.70;;;3.90;99.90;;;;;;10206843;28;84171;-53
2022/01/07 02:32:12;;;;;;;4.72;1.55;;;3.90;99.90;;;;;;10206475;28;84751;-55
2022/01/07 02:37:14;;;;;;;3.20;1.45;;;3.90;99.90;;;;;;10206466;28;84281;-52
2022/01/07 02:42:15;;;;;;;2.33;1.42;;;3.90;99.90;;;;;;10205316;28;84878;-57
2022/01/07 02:47:16;;;;;;;6.80;1.92;;;4.00;99.90;;;;;;10205653;28;84098;-58
2022/01/07 02:52:16;;;;;;;3.03;1.15;;;4.00;99.90;;;;;;10205497;28;84201;-56
2022/01/07 02:57:17;;;;;;;3.67;1.30;;;3.90;99.90;;;;;;10204559;28;84030;-56
2022/01/07 03:02:18;;;;;;;5.38;1.80;;;3.80;99.90;;;;;;10204759;28;84829;-56
2022/01/07 03:07:19;;;;;;;5.10;1.30;;;3.80;99.90;;;;;;10204268;28;84770;-56
2022/01/07 03:12:20;;;;;;;1.98;1.20;;;3.80;99.90;;;;;;10204987;28;85013;-56
2022/01/07 03:17:21;;;;;;;3.42;1.60;;;3.80;99.90;;;;;;10205165;28;84926;-54
2022/01/07 03:22:22;;;;;;;3.25;1.48;;;3.80;99.90;;;;;;10204351;28;84819;-56
2022/01/07 03:27:22;;;;;;;5.57;2.15;;;3.60;99.90;;;;;;10202514;28;85988;-57
2022/01/07 03:32:24;;;;;;;6.38;1.73;;;3.60;99.90;;;;;;10204539;28;84149;-53
2022/01/07 03:37:25;;;;;;;4.82;1.90;;;3.60;99.90;;;;;;10210722;28;84289;-57
2022/01/07 03:42:25;;;;;;;3.30;1.63;;;3.50;99.90;;;;;;10210537;28;84748;-56
2022/01/07 03:47:27;;;;;;;3.75;1.67;;;3.50;99.90;;;;;;10225083;28;87055;-55
2022/01/07 03:52:27;;;;;;;4.65;1.63;;;3.50;99.90;;;;;;10210518;28;84288;-55
2022/01/07 03:57:28;;;;;;;3.30;2.40;;;3.40;99.90;;;;;;10209941;28;84092;-58
2022/01/07 04:02:29;;;;;;;3.03;1.75;;;3.40;99.90;;;;;;10210503;28;84960;-57
2022/01/07 04:07:32;;;;;;;5.03;1.90;;;3.40;99.90;;;;;;10208179;28;84038;-54
2022/01/07 04:12:33;;;;;;;2.45;1.55;;;3.30;99.90;;;;;;10209592;28;84610;-58
2022/01/07 04:17:38;;;;;;;2.83;1.45;;;3.30;99.90;;;;;;10209572;28;84841;-55
2022/01/07 04:22:39;;;;;;;8.52;2.08;;;3.20;99.90;;;;;;10209187;28;84202;-55
2022/01/07 04:27:40;;;;;;;7.28;2.35;;;3.00;99.90;;;;;;10209549;28;84750;-57
2022/01/07 04:32:42;;;;;;;5.35;2.20;;;3.00;99.90;;;;;;10209127;28;84948;-54
2022/01/07 04:37:43;;;;;;;7.18;1.70;;;3.00;99.90;;;;;;10208919;28;84898;-58
2022/01/07 04:42:44;;;;;;;5.35;2.67;;;2.90;99.90;;;;;;10208142;28;84954;-55
2022/01/07 04:47:45;;;;;;;2.60;1.63;;;2.90;99.90;;;;;;10206970;28;84263;-59
2022/01/07 04:52:46;;;;;;;9.02;2.88;;;2.80;99.90;;;;;;10208595;28;84970;-53
2022/01/07 04:57:47;;;;;;;5.97;2.50;;;2.80;99.90;;;;;;10208072;28;84778;-58
2022/01/07 05:02:49;;;;;;;3.05;1.70;;;2.80;99.90;;;;;;10208487;28;85019;-53
2022/01/07 05:07:49;;;;;;;5.90;1.83;;;2.70;99.90;;;;;;10208676;28;85019;-57
2022/01/07 05:12:50;;;;;;;4.22;2.10;;;2.70;99.90;;;;;;10205009;28;84966;-54
2022/01/07 05:17:52;;;;;;;6.57;2.75;;;2.80;99.90;;;;;;10206755;28;84905;-55
2022/01/07 05:22:53;;;;;;;5.40;2.08;;;2.80;99.90;;;;;;10206608;28;84136;-55
2022/01/07 05:27:53;;;;;;;4.18;1.98;;;2.80;99.90;;;;;;10205272;28;84118;-52
2022/01/07 05:32:54;;;;;;;5.97;1.60;;;2.90;99.90;;;;;;10206263;28;84972;-54
2022/01/07 05:37:55;;;;;;;10.00;2.10;;;2.80;99.90;;;;;;10205817;28;84863;-55
2022/01/07 05:42:55;;;;;;;4.18;2.25;;;2.80;99.90;;;;;;10273105;23;86094;-49
2022/01/07 05:47:56;;;;;;;5.55;2.35;;;2.80;99.90;;;;;;10287204;28;84825;-51
2022/01/07 05:52:57;;;;;;;3.42;1.73;;;2.90;99.90;;;;;;10252098;28;85036;-50
2022/01/07 05:57:57;;;;;;;6.22;2.08;;;2.80;99.90;;;;;;10235553;28;84180;-50
2022/01/07 06:02:58;;;;;;;4.25;1.30;;;2.80;99.90;;;;;;10238109;28;84690;-51
2022/01/07 06:07:58;;;;;;;4.13;1.58;;;2.70;99.90;;;;;;10237679;28;84965;-49
2022/01/07 06:12:59;;;;;;;6.05;1.85;;;2.70;99.90;;;;;;10242305;28;84187;-50
2022/01/07 06:18:03;;;;;;;4.28;1.92;;;2.70;99.90;;;;;;10246081;28;84987;-49
2022/01/07 06:23:03;;;;;;;8.10;2.13;;;2.70;99.90;;;;;;10230454;28;84231;-48
2022/01/07 06:28:04;;;;;;;3.20;1.70;;;2.80;99.90;;;;;;10233820;28;84978;-51
2022/01/07 06:33:05;;;;;;;4.20;2.00;;;2.80;99.90;;;;;;10234015;28;84694;-55
2022/01/07 06:38:06;;;;;;;10.40;1.67;;;2.80;99.90;;;;;;10229162;28;85064;-50
2022/01/07 06:43:06;;;;;;;7.03;2.67;;;2.90;99.90;;;;;;10234217;28;85280;-47
2022/01/07 06:48:07;;;;;;;10.05;2.00;;;2.90;99.90;;;;;;10245533;28;84959;-52
2022/01/07 06:53:07;;;;;;;3.50;1.63;;;3.00;99.90;;;;;;10245836;28;84215;-48
2022/01/07 06:58:08;;;;;;;7.90;1.85;;;3.00;99.90;;;;;;10236172;28;85013;-49
2022/01/07 07:03:09;;;;;;;4.40;1.90;;;2.90;99.90;;;;;;10237848;28;84962;-50
2022/01/07 07:08:10;;;;;;;7.35;2.15;;;3.00;99.90;;;;;;10244603;28;84877;-53
2022/01/07 07:13:10;;;;;;;7.40;2.25;;;3.00;99.90;;;;;;10252497;28;84218;-52
2022/01/07 07:18:11;;;;;;;6.10;1.85;;;3.00;99.90;;;;;;10252709;28;84079;-53
2022/01/07 07:23:12;;;;;;;2.67;1.73;;;2.90;99.90;;;;;;10256844;28;84001;-53
2022/01/07 07:28:12;;;;;;;6.53;1.65;;;3.00;99.90;;;;;;10270104;28;84130;-49
2022/01/07 07:38:23;;;;;;;4.78;2.17;;;3.10;99.90;;;;;;10265714;28;84081;-52
2022/01/07 07:43:23;;;;;;;3.95;2.35;;;3.10;99.90;;;;;;10252537;28;84212;-52
2022/01/07 07:48:24;;;;;;;5.00;2.30;;;3.10;99.90;;;;;;10252745;28;84075;-48
2022/01/07 07:53:26;;;;;;;10.30;2.40;;;3.10;99.90;;;;;;10251640;28;84117;-52
2022/01/07 07:58:27;;;;;;;4.22;2.30;;;3.10;99.90;;;;;;10252765;28;84421;-50
2022/01/07 08:03:28;;;;;;;5.65;2.67;;;3.20;99.90;;;;;;10250638;28;85970;-49
2022/01/07 08:08:29;;;;;;;5.07;2.72;;;3.20;99.90;;;;;;10252042;28;85497;-52
2022/01/07 08:13:30;;;;;;;3.73;2.07;;;3.20;99.90;;;;;;10252193;28;84239;-48
2022/01/07 08:18:34;;;;;;;5.53;3.00;;;3.20;99.90;;;;;;10250433;28;84789;-49
2022/01/07 08:23:38;;;;;;;5.20;2.70;;;3.30;99.90;;;;;;10250535;28;84023;-48
2022/01/07 08:28:45;;;;;;;5.60;3.15;;;3.30;99.90;;;;;;10249379;28;84887;-48
2022/01/07 08:39:08;;;;;;;6.05;2.92;;;3.40;99.90;;;;;;10249616;28;84194;-48
2022/01/07 08:44:10;;;;;;;5.50;3.40;;;3.50;99.90;;;;;;10249214;28;84096;-49
2022/01/07 08:49:10;;;;;;;7.55;3.10;;;3.60;99.90;;;;;;10248497;28;84877;-49
2022/01/07 08:54:11;;;;;;;8.65;3.55;;;3.70;99.90;;;;;;10249030;28;85034;-48
2022/01/07 08:59:12;;;;;;;8.40;4.10;;;3.70;99.90;;;;;;10248472;28;84936;-49
2022/01/07 09:04:13;;;;;;;10.35;4.10;;;3.80;99.90;;;;;;10249318;28;84857;-48
2022/01/07 09:09:13;;;;;;;8.98;4.18;;;3.80;99.90;;;;;;10246570;28;85914;-48
2022/01/07 09:14:14;;;;;;;10.93;4.53;;;3.80;99.90;;;;;;10246753;28;86356;-47
2022/01/07 09:19:15;;;;;;;9.73;4.50;;;3.80;99.90;;;;;;10248182;28;84865;-50
2022/01/07 09:24:15;;;;;;;7.57;4.80;;;3.90;99.90;;;;;;10248323;28;84051;-50
2022/01/07 09:29:16;;;;;;;8.98;4.57;;;3.90;99.90;;;;;;10247822;28;84105;-47
2022/01/07 09:34:17;;;;;;;9.13;4.57;;;3.90;99.90;;;;;;10247485;28;84860;-49
2022/01/07 09:39:17;;;;;;;13.70;4.85;;;3.90;99.90;;;;;;10247463;28;85650;-50
2022/01/07 09:44:18;;;;;;;9.13;4.25;;;4.00;99.90;;;;;;10247284;28;85191;-50
2022/01/07 09:49:19;;;;;;;7.20;4.00;;;4.10;99.90;;;;;;10247413;28;84903;-48
2022/01/07 09:54:19;;;;;;;8.52;3.97;;;4.10;99.90;;;;;;10247292;28;84947;-49
2022/01/07 09:59:20;;;;;;;6.47;3.85;;;4.20;99.90;;;;;;10247452;28;84942;-50
2022/01/07 10:04:31;;;;;;;9.00;4.45;;;4.20;99.90;;;;;;10246949;28;84332;-47
2022/01/07 10:09:32;;;;;;;16.20;4.35;;;4.20;99.90;;;;;;10245177;28;86844;-49
2022/01/07 10:14:33;;;;;;;12.40;4.28;;;4.30;99.90;;;;;;10247670;28;85063;-50
2022/01/07 10:19:42;;;;;;;7.88;4.03;;;4.20;99.90;;;;;;10246602;28;84457;-49
2022/01/07 10:24:56;;;;;;;6.60;3.97;;;4.30;99.90;;;;;;10246486;28;84137;-50
2022/01/07 10:29:57;;;;;;;8.15;3.85;;;4.20;99.90;;;;;;10245753;28;84349;-50
2022/01/07 10:35:03;;;;;;;5.85;3.60;;;4.30;99.90;;;;;;10247081;28;84109;-52
2022/01/07 10:40:40;;;;;;;7.82;3.67;;;4.40;99.90;;;;;;10245380;28;85242;-52
2022/01/07 10:45:46;;;;;;;7.68;3.85;;;4.40;99.90;;;;;;10246127;28;85068;-51
2022/01/07 10:50:52;;;;;;;7.50;3.28;;;4.40;99.90;;;;;;10245769;28;84420;-48
2022/01/07 10:56:12;;;;;;;5.55;3.25;;;4.50;99.90;;;;;;10245562;28;85104;-50
2022/01/07 11:01:18;;;;;;;6.63;3.72;;;4.50;99.90;;;;;;10246727;28;84207;-48
2022/01/07 11:06:20;;;;;;;10.07;4.53;;;4.60;99.90;;;;;;10245184;28;84865;-51
2022/01/07 11:11:23;;;;;;;6.40;4.22;;;4.70;99.90;;;;;;10244931;28;84964;-49
2022/01/07 11:16:24;;;;;;;7.40;3.88;;;4.80;99.90;;;;;;10245007;28;85063;-48
2022/01/07 11:21:25;;;;;;;4.55;2.97;;;4.70;99.90;;;;;;10248096;28;84752;-50
2022/01/07 11:26:26;;;;;;;8.30;4.00;;;4.80;99.90;;;;;;10245337;28;84290;-50
2022/01/07 11:31:28;;;;;;;6.43;3.88;;;4.70;99.90;;;;;;10243851;28;84399;-52
2022/01/07 11:36:37;;;;;;;15.57;4.00;;;4.80;99.90;;;;;;10245121;28;85084;-53
2022/01/07 11:41:48;;;;;;;7.47;3.90;;;4.90;99.90;;;;;;10251404;23;85021;-50
2022/01/07 11:46:49;;;;;;;9.32;4.28;;;5.00;99.90;;;;;;10205431;28;84975;-50
2022/01/07 11:51:50;;;;;;;8.75;3.67;;;5.10;99.90;;;;;;10187364;28;85009;-51
2022/01/07 11:56:51;;;;;;;6.93;4.40;;;5.10;99.90;;;;;;10215392;28;84949;-54
2022/01/07 12:01:57;;;;;;;11.00;4.18;;;5.10;99.90;;;;;;10219708;28;84146;-55
2022/01/07 12:07:00;;;;;;;7.00;3.90;;;5.20;99.90;;;;;;10211525;28;84115;-54
2022/01/07 12:12:12;;;;;;;7.13;4.25;;;5.30;99.90;;;;;;10211018;28;84912;-55
2022/01/07 12:17:15;;;;;;;6.57;3.90;;;5.30;99.90;;;;;;10211157;28;84945;-50
2022/01/07 12:22:16;;;;;;;8.15;4.32;;;5.50;99.90;;;;;;10210131;28;84314;-49
2022/01/07 12:27:23;;;;;;;9.48;4.60;;;5.60;99.90;;;;;;10208574;28;86095;-51
2022/01/07 12:32:35;;;;;;;5.93;3.95;;;5.70;99.90;;;;;;10210995;28;85003;-51
2022/01/07 12:37:36;;;;;;;8.10;4.55;;;5.70;99.90;;;;;;10210760;28;84033;-53
2022/01/07 12:42:41;;;;;;;7.90;4.22;;;5.80;99.90;;;;;;10209915;28;84185;-53
2022/01/07 12:47:42;;;;;;;8.02;4.40;;;5.80;99.90;;;;;;10209674;28;85982;-52
2022/01/07 12:52:43;;;;;;;10.95;4.78;;;5.80;99.90;;;;;;10210671;28;84969;-52
2022/01/07 12:57:47;;;;;;;7.90;4.53;;;5.70;99.90;;;;;;10211489;28;84945;-52
2022/01/07 13:02:50;;;;;;;10.88;4.85;;;5.60;99.90;;;;;;10209825;28;84218;-51
2022/01/07 13:07:58;;;;;;;7.25;4.25;;;5.70;99.90;;;;;;10206918;28;86023;-53
2022/01/07 13:13:04;;;;;;;12.20;4.80;;;5.80;99.90;;;;;;10209958;28;84031;-55
2022/01/07 13:18:19;;;;;;;10.52;4.18;;;5.70;99.90;;;;;;10209602;28;84149;-47
2022/01/07 13:23:20;;;;;;;8.98;3.78;;;5.70;99.90;;;;;;10198376;28;85312;-54
2022/01/07 13:28:40;;;;;;;7.30;3.75;;;5.80;99.90;;;;;;10202428;28;85785;-50
2022/01/07 13:33:43;;;;;;;6.28;3.90;;;5.70;99.90;;;;;;10204325;28;85096;-50
2022/01/07 13:38:43;;;;;;;8.30;4.47;;;5.70;99.90;;;;;;10205577;28;85667;-50
2022/01/07 13:43:48;;;;;;;6.60;4.20;;;5.80;99.90;;;;;;10207500;28;85368;-52
2022/01/07 13:49:13;;;;;;;5.78;3.50;;;6.00;99.90;;;;;;10205495;28;85121;-53
2022/01/07 13:54:15;;;;;;;7.15;3.42;;;6.10;99.90;;;;;;10204025;28;85475;-54
2022/01/07 13:59:16;;;;;;;5.18;3.08;;;6.30;99.90;;;;;;10204268;28;84295;-53
2022/01/07 14:04:17;;;;;;;4.78;2.53;;;6.30;99.90;;;;;;10188229;28;84669;-53
2022/01/07 14:09:18;;;;;;;6.85;2.60;;;6.10;99.90;;;;;;10188963;28;85839;-52
2022/01/07 14:14:19;;;;;;;4.07;2.80;;;5.90;99.90;;;;;;10197864;28;85070;-55
2022/01/07 14:19:19;;;;;;;5.70;3.30;;;5.80;99.90;;;;;;10202296;28;84918;-50
2022/01/07 14:24:20;;;;;;;7.22;3.10;;;5.70;99.90;;;;;;10202313;28;84270;-50
2022/01/07 14:29:21;;;;;;;4.95;3.05;;;5.60;99.90;;;;;;10201297;28;84897;-58
2022/01/07 14:34:22;;;;;;;4.93;2.40;;;5.60;99.90;;;;;;10202869;28;84283;-54
2022/01/07 14:39:23;;;;;;;4.45;2.63;;;5.60;99.90;;;;;;10202036;28;85537;-54
2022/01/07 14:44:24;;;;;;;4.75;2.78;;;5.60;99.90;;;;;;10217312;28;85443;-52
2022/01/07 14:49:26;;;;;;;8.23;3.47;;;5.60;99.90;;;;;;10184526;28;86798;-52
2022/01/07 14:54:27;;;;;;;7.05;3.75;;;5.60;99.90;;;;;;10199534;28;87079;-54
2022/01/07 14:59:27;;;;;;;10.27;3.60;;;5.60;99.90;;;;;;10201300;28;84870;-53
2022/01/07 15:04:28;;;;;;;6.82;2.60;;;5.70;99.90;;;;;;10203207;28;84408;-54
2022/01/07 15:09:29;;;;;;;3.03;2.53;;;5.60;99.90;;;;;;10200002;28;86626;-53
2022/01/07 15:14:30;;;;;;;4.85;2.45;;;5.50;99.90;;;;;;10184897;28;84373;-56
2022/01/07 15:19:32;;;;;;;3.25;2.38;;;5.50;99.90;;;;;;10200696;28;84281;-50
2022/01/07 15:24:33;;;;;;;5.30;2.05;;;5.50;99.90;;;;;;10200448;28;84842;-51
2022/01/07 15:29:35;;;;;;;6.35;2.70;;;5.40;99.90;;;;;;10198405;28;84763;-52
2022/01/07 15:34:36;;;;;;;3.88;2.58;;;5.30;99.90;;;;;;10204566;28;86287;-50
2022/01/07 15:39:36;;;;;;;3.40;2.40;;;5.20;99.90;;;;;;10205284;28;84822;-55
2022/01/07 15:44:37;;;;;;;2.83;2.10;;;5.10;99.90;;;;;;10207008;28;86086;-53
2022/01/07 15:49:38;;;;;;;3.35;1.98;;;5.20;99.90;;;;;;10205953;28;84899;-56
2022/01/07 15:54:39;;;;;;;3.05;1.50;;;5.10;99.90;;;;;;10205773;28;85075;-58
2022/01/07 15:59:39;;;;;;;4.03;2.05;;;5.10;99.90;;;;;;10206904;28;84085;-53
2022/01/07 16:04:40;;;;;;;5.28;2.22;;;5.10;99.90;;;;;;10204733;28;84859;-54
2022/01/07 16:09:43;;;;;;;2.83;1.60;;;5.00;99.90;;;;;;10195776;28;86170;-51
2022/01/07 16:14:44;;;;;;;6.95;1.67;;;5.00;99.90;;;;;;10206230;28;84969;-54
2022/01/07 16:19:44;;;;;;;4.25;1.95;;;5.00;99.90;;;;;;10209156;28;85077;-53
2022/01/07 16:24:45;;;;;;;2.78;1.80;;;5.00;99.90;;;;;;10210315;28;88945;-56
2022/01/07 16:29:47;;;;;;;2.42;1.60;;;4.90;99.90;;;;;;10211314;28;84187;-57
2022/01/07 16:34:48;;;;;;;3.40;2.35;;;4.90;99.90;;;;;;10204345;28;85119;-56
2022/01/07 16:39:48;;;;;;;5.15;2.05;;;4.80;99.90;;;;;;10206736;28;84011;-56
2022/01/07 16:44:49;;;;;;;3.80;2.20;;;4.80;99.90;;;;;;10208388;28;87072;-53
2022/01/07 16:49:50;;;;;;;3.55;1.90;;;4.70;99.90;;;;;;10208892;28;84206;-57
2022/01/07 16:54:51;;;;;;;4.13;2.10;;;4.70;99.90;;;;;;10203795;28;86023;-55
2022/01/07 16:59:51;;;;;;;4.88;2.33;;;4.70;99.90;;;;;;10204390;28;86934;-51
2022/01/07 17:04:52;;;;;;;1.67;0.57;;;4.80;99.90;;;;;;10207743;28;84785;-52
2022/01/07 17:09:53;;;;;;;1.60;0.65;;;4.40;99.90;;;;;;10207913;28;86648;-51
2022/01/07 17:14:53;;;;;;;1.23;0.75;;;3.80;99.90;;;;;;10207578;28;84978;-51
2022/01/07 17:19:54;;;;;;;1.85;0.60;;;3.60;99.90;;;;;;10207210;28;84208;-50
2022/01/07 17:28:10;;;;;;;0.40;0.20;;;3.50;99.90;;;;;;10405456;28;82801;-54
2022/01/07 17:33:11;;;;;;;0.70;0.55;;;3.30;99.90;;;;;;10392579;28;83075;-49
2022/01/07 17:38:12;;;;;;;1.33;0.40;;;3.20;99.90;;;;;;10358610;22;83775;-55
2022/01/07 17:43:13;;;;;;;1.48;0.65;;;3.20;99.90;;;;;;10298860;28;83098;-59
2022/01/07 17:48:13;;;;;;;2.30;1.48;;;3.30;99.90;;;;;;10302716;28;83903;-58
2022/01/07 17:53:14;;;;;;;1.42;1.00;;;3.40;99.90;;;;;;10286743;28;83177;-58
2022/01/07 17:58:17;;;;;;;4.00;1.02;;;3.50;99.90;;;;;;10279134;28;82953;-55
2022/01/07 18:03:17;;;;;;;1.45;0.45;;;3.50;99.90;;;;;;10281521;28;82809;-54
2022/01/07 18:08:18;;;;;;;0.95;0.77;;;3.50;99.90;;;;;;10282848;28;82994;-57
2022/01/07 18:13:21;;;;;;;0.82;0.50;;;3.40;99.90;;;;;;10292141;28;84012;-55
2022/01/07 18:18:21;;;;;;;3.53;0.88;;;3.30;99.90;;;;;;10283505;28;83122;-54
2022/01/07 18:23:22;;;;;;;2.40;0.80;;;3.30;99.90;;;;;;10292209;28;83039;-50
2022/01/07 18:28:23;;;;;;;1.30;0.80;;;3.20;99.90;;;;;;10279191;28;83761;-51
2022/01/07 18:33:23;;;;;;;1.88;0.98;;;3.10;99.90;;;;;;10280193;28;82853;-55
2022/01/07 18:38:26;;;;;;;2.10;1.02;;;2.90;99.90;;;;;;10258680;28;83724;-55
2022/01/07 18:43:27;;;;;;;4.07;1.25;;;2.90;99.90;;;;;;10250594;28;83767;-55
2022/01/07 18:48:28;;;;;;;2.53;1.00;;;2.90;99.90;;;;;;10233841;28;85807;-55
2022/01/07 18:53:29;;;;;;;2.08;0.95;;;2.80;99.90;;;;;;10251472;28;83398;-55
2022/01/07 18:58:30;;;;;;;0.82;0.73;;;2.60;99.90;;;;;;10251354;28;83088;-52
2022/01/07 19:03:30;;;;;;;1.10;0.77;;;2.60;99.90;;;;;;10270468;28;83812;-56
2022/01/07 19:08:31;;;;;;;1.25;0.80;;;2.60;99.90;;;;;;10270867;28;83094;-57
2022/01/07 19:13:32;;;;;;;1.90;1.13;;;2.60;99.90;;;;;;10269175;28;83558;-55
2022/01/07 19:18:32;;;;;;;1.40;0.73;;;2.70;99.90;;;;;;10264741;28;83040;-59
2022/01/07 19:23:34;;;;;;;1.15;0.38;;;2.70;99.90;;;;;;10267617;28;82983;-59
2022/01/07 19:28:35;;;;;;;1.13;0.50;;;2.50;99.90;;;;;;10261275;28;83180;-58
2022/01/07 19:33:37;;;;;;;0.65;0.55;;;2.50;99.90;;;;;;10266236;28;83117;-56
2022/01/07 19:38:39;;;;;;;0.73;0.60;;;2.50;99.90;;;;;;10250786;28;83569;-60
2022/01/07 19:43:40;;;;;;;1.33;0.73;;;2.40;99.90;;;;;;10249713;28;83234;-58
2022/01/07 19:48:41;;;;;;;0.55;0.50;;;2.50;99.90;;;;;;10250212;28;82938;-56
2022/01/07 19:53:42;;;;;;;1.92;1.10;;;2.50;99.90;;;;;;10256067;28;84832;-57
2022/01/07 19:58:42;;;;;;;1.08;0.70;;;2.50;99.90;;;;;;10249044;28;83964;-52
2022/01/07 20:03:43;;;;;;;3.50;1.02;;;2.50;99.90;;;;;;10274553;28;82951;-57
2022/01/07 20:08:44;;;;;;;0.85;0.65;;;2.50;99.90;;;;;;10290858;28;85737;-60
2022/01/07 20:13:46;;;;;;;0.68;0.55;;;2.40;99.90;;;;;;10292171;28;82945;-57
2022/01/07 20:18:52;;;;;;;1.05;0.50;;;2.30;99.90;;;;;;10288561;28;84661;-52
2022/01/07 20:23:52;;;;;;;1.80;0.90;;;2.30;99.90;;;;;;10270519;28;82931;-53
2022/01/07 20:28:53;;;;;;;1.20;0.80;;;2.30;99.90;;;;;;10241373;28;83573;-55
2022/01/07 20:33:54;;;;;;;1.48;0.80;;;2.30;99.90;;;;;;10270459;28;84030;-55
2022/01/07 20:38:55;;;;;;;1.10;0.80;;;2.40;99.90;;;;;;10254199;28;85076;-56
2022/01/07 20:43:55;;;;;;;2.50;0.95;;;2.50;99.90;;;;;;10257669;28;82945;-52
2022/01/07 20:48:56;;;;;;;4.03;0.73;;;2.50;99.90;;;;;;10254122;28;83603;-57
2022/01/07 20:53:57;;;;;;;1.63;0.85;;;2.50;99.90;;;;;;10249224;28;83209;-56
2022/01/07 20:58:58;;;;;;;2.35;1.17;;;2.50;99.90;;;;;;10265427;28;83834;-56
2022/01/07 21:03:58;;;;;;;2.13;1.38;;;2.40;99.90;;;;;;10256203;28;83307;-55
2022/01/07 21:08:59;;;;;;;2.92;1.42;;;2.50;99.90;;;;;;10265102;28;83336;-53
2022/01/07 21:14:00;;;;;;;2.85;1.77;;;2.60;99.90;;;;;;10268114;28;83102;-51
2022/01/07 21:19:00;;;;;;;2.50;1.83;;;2.60;99.90;;;;;;10253749;28;83350;-54
2022/01/07 21:24:01;;;;;;;3.35;2.20;;;2.60;99.90;;;;;;10255093;28;83223;-52
2022/01/07 21:29:02;;;;;;;4.47;2.47;;;2.50;99.90;;;;;;10244328;28;83222;-54
2022/01/07 21:34:03;;;;;;;5.40;2.70;;;2.50;99.90;;;;;;10249165;28;82877;-54
2022/01/07 21:39:04;;;;;;;6.80;3.63;;;2.50;99.90;;;;;;10248939;28;83713;-51
2022/01/07 21:44:06;;;;;;;9.35;4.22;;;2.40;99.90;;;;;;10248982;28;82842;-54
2022/01/07 21:49:07;;;;;;;10.25;3.72;;;2.50;99.90;;;;;;10248366;28;83317;-53
2022/01/07 21:54:07;;;;;;;6.18;3.55;;;2.40;99.90;;;;;;10246254;28;85939;-55
2022/01/07 21:59:08;;;;;;;8.90;4.35;;;2.40;99.90;;;;;;10247711;28;83491;-55
2022/01/07 22:04:09;;;;;;;11.13;4.80;;;2.40;99.90;;;;;;10248089;28;82989;-51
2022/01/07 22:09:09;;;;;;;6.60;4.70;;;2.40;99.90;;;;;;10246620;28;83819;-51
2022/01/07 22:14:10;;;;;;;10.15;5.00;;;2.40;99.90;;;;;;10249402;28;83160;-54
2022/01/07 22:19:11;;;;;;;10.35;4.70;;;2.50;99.90;;;;;;10254375;28;83052;-54
2022/01/07 22:24:12;;;;;;;12.63;5.82;;;2.50;99.90;;;;;;10260330;28;83293;-53
2022/01/07 22:29:13;;;;;;;11.00;5.28;;;2.50;99.90;;;;;;10265627;28;83226;-54
2022/01/07 22:34:14;;;;;;;13.35;6.25;;;2.50;99.90;;;;;;10255812;28;82858;-52
2022/01/07 22:39:15;;;;;;;10.50;5.55;;;2.50;99.90;;;;;;10256037;28;83441;-51
2022/01/07 22:44:15;;;;;;;9.55;5.38;;;2.50;99.90;;;;;;10252869;28;85473;-59
2022/01/07 22:49:16;;;;;;;8.40;4.65;;;2.60;99.90;;;;;;10253357;28;82942;-52
2022/01/07 22:54:17;;;;;;;13.75;5.53;;;2.60;99.90;;;;;;10253936;28;82881;-53
2022/01/07 22:59:17;;;;;;;11.32;4.63;;;2.60;99.90;;;;;;10251451;28;84394;-52
2022/01/07 23:04:18;;;;;;;10.15;5.03;;;2.60;99.90;;;;;;10251774;28;83113;-51
2022/01/07 23:09:19;;;;;;;13.30;5.20;;;2.70;99.90;;;;;;10252031;28;83354;-55
2022/01/07 23:14:20;;;;;;;11.02;5.57;;;2.80;99.90;;;;;;10252686;28;83398;-53
2022/01/07 23:19:20;;;;;;;12.45;5.30;;;3.00;99.90;;;;;;10252224;28;83335;-50
2022/01/07 23:24:21;;;;;;;13.75;6.03;;;3.00;99.90;;;;;;10251311;28;83983;-51
2022/01/07 23:29:22;;;;;;;13.98;6.50;;;3.10;99.90;;;;;;10251629;28;82914;-54
2022/01/07 23:34:22;;;;;;;14.30;7.18;;;3.10;99.90;;;;;;10251402;28;83335;-56
2022/01/07 23:39:23;;;;;;;14.98;7.53;;;3.10;99.90;;;;;;10271786;23;83145;-48
2022/01/07 23:44:24;;;;;;;12.43;7.07;;;3.20;99.90;;;;;;10260350;28;83702;-51
2022/01/07 23:49:24;;;;;;;16.50;7.47;;;3.20;99.90;;;;;;10251341;28;82740;-46
2022/01/07 23:54:25;;;;;;;14.20;6.88;;;3.30;99.90;;;;;;10250454;28;83849;-51
2022/01/07 23:59:26;;;;;;;12.88;7.00;;;3.30;99.90;;;;;;10249338;28;83005;-48
